createdAt,value
2023-06-03T00:00:30.466Z,8.50
2023-06-03T00:03:35.518Z,8.55
2023-06-03T00:06:37.802Z,8.80
2023-06-03T00:09:39.897Z,8.23
2023-06-03T00:12:42.486Z,8.18
2023-06-03T00:15:44.997Z,7.97
2023-06-03T00:18:47.584Z,7.85
2023-06-03T00:21:51.576Z,8.00
2023-06-03T00:24:53.869Z,7.78
2023-06-03T00:27:56.032Z,7.88
2023-06-03T00:30:58.257Z,7.65
2023-06-03T00:34:00.524Z,7.97
2023-06-03T00:37:02.736Z,7.82
2023-06-03T00:40:05.460Z,7.45
2023-06-03T00:43:07.539Z,7.30
2023-06-03T00:46:11.849Z,7.53
2023-06-03T00:49:13.972Z,7.63
2023-06-03T00:52:17.503Z,7.10
2023-06-03T00:55:19.791Z,6.90
2023-06-03T00:58:22.142Z,6.88
2023-06-03T01:01:25.626Z,7.15
2023-06-03T01:04:30.702Z,7.10
2023-06-03T01:07:57.877Z,6.88
2023-06-03T01:11:13.076Z,7.25
2023-06-03T01:14:29.119Z,7.05
2023-06-03T01:17:36.819Z,6.63
2023-06-03T01:20:39.478Z,6.57
2023-06-03T01:23:46.583Z,7.03
2023-06-03T01:26:48.738Z,6.78
2023-06-03T01:29:50.972Z,6.70
2023-06-03T01:32:53.849Z,6.38
2023-06-03T01:35:59.606Z,6.57
2023-06-03T01:39:02.387Z,6.63
2023-06-03T01:42:05.153Z,6.47
2023-06-03T01:45:07.884Z,6.47
2023-06-03T01:48:09.980Z,6.70
2023-06-03T01:51:12.117Z,6.18
2023-06-03T01:54:14.369Z,7.47
2023-06-03T01:57:17.749Z,6.88
2023-06-03T02:00:20.254Z,6.75
2023-06-03T02:03:22.610Z,6.68
2023-06-03T02:06:24.878Z,6.63
2023-06-03T02:09:29.094Z,6.32
2023-06-03T02:12:31.185Z,6.40
2023-06-03T02:15:33.325Z,6.40
2023-06-03T02:18:36.181Z,6.63
2023-06-03T02:21:39.601Z,6.57
2023-06-03T02:24:42.239Z,6.40
2023-06-03T02:27:45.124Z,6.82
2023-06-03T02:30:47.266Z,6.90
2023-06-03T02:33:49.471Z,7.20
2023-06-03T02:36:51.637Z,7.15
2023-06-03T02:39:53.772Z,6.80
2023-06-03T02:42:55.922Z,6.88
2023-06-03T02:45:58.227Z,7.25
2023-06-03T02:49:05.101Z,6.60
2023-06-03T02:52:07.571Z,6.93
2023-06-03T02:55:10.074Z,7.22
2023-06-03T02:58:13.839Z,7.40
2023-06-03T03:01:16.417Z,7.43
2023-06-03T03:04:19.138Z,7.32
2023-06-03T03:07:21.929Z,7.13
2023-06-03T03:10:24.027Z,7.63
2023-06-03T03:13:26.233Z,6.88
2023-06-03T03:16:29.392Z,7.18
2023-06-03T03:19:31.655Z,7.20
2023-06-03T03:22:36.328Z,7.20
2023-06-03T03:25:38.674Z,6.40
2023-06-03T03:28:40.918Z,6.72
2023-06-03T03:31:43.080Z,7.00
2023-06-03T03:34:45.194Z,6.85
2023-06-03T03:37:47.645Z,7.18
2023-06-03T03:40:49.717Z,7.07
2023-06-03T03:43:52.385Z,7.07
2023-06-03T03:47:01.769Z,7.50
2023-06-03T03:50:04.084Z,7.15
2023-06-03T03:53:08.382Z,6.70
2023-06-03T03:56:13.729Z,6.80
2023-06-03T03:59:18.084Z,6.55
2023-06-03T04:02:21.418Z,6.40
2023-06-03T04:05:24.205Z,6.32
2023-06-03T04:08:40.507Z,6.50
2023-06-03T04:11:46.327Z,6.53
2023-06-03T04:14:51.563Z,6.50
2023-06-03T04:17:55.647Z,6.88
2023-06-03T04:20:57.796Z,6.93
2023-06-03T04:24:00.282Z,6.75
2023-06-03T04:27:07.836Z,6.30
2023-06-03T04:30:10.559Z,6.07
2023-06-03T04:33:12.639Z,6.35
2023-06-03T04:36:14.850Z,6.28
2023-06-03T04:39:18.717Z,6.20
2023-06-03T04:42:22.651Z,5.85
2023-06-03T04:45:25.029Z,5.88
2023-06-03T04:48:27.973Z,5.80
2023-06-03T04:51:34.823Z,6.10
2023-06-03T04:54:38.184Z,5.30
2023-06-03T04:57:40.565Z,5.88
2023-06-03T05:00:42.657Z,6.03
2023-06-03T05:03:45.806Z,5.93
2023-06-03T05:06:48.360Z,5.70
2023-06-03T05:09:50.747Z,5.75
2023-06-03T05:12:53.573Z,5.78
2023-06-03T05:15:55.596Z,5.45
2023-06-03T05:18:57.715Z,5.13
2023-06-03T05:22:02.039Z,5.85
2023-06-03T05:25:06.642Z,5.43
2023-06-03T05:28:08.907Z,5.10
2023-06-03T05:31:11.255Z,5.50
2023-06-03T05:34:13.886Z,5.40
2023-06-03T05:37:16.425Z,5.63
2023-06-03T05:40:18.484Z,5.72
2023-06-03T05:43:20.982Z,5.55
2023-06-03T05:46:23.175Z,5.43
2023-06-03T05:49:28.381Z,5.60
2023-06-03T05:52:30.514Z,5.85
2023-06-03T05:55:33.267Z,5.50
2023-06-03T05:58:35.510Z,5.70
2023-06-03T06:01:37.586Z,5.55
2023-06-03T06:04:39.786Z,6.10
2023-06-03T06:07:41.924Z,5.80
2023-06-03T06:10:44.018Z,6.65
2023-06-03T06:13:46.066Z,7.05
2023-06-03T06:16:48.246Z,7.32
2023-06-03T06:19:50.326Z,7.70
2023-06-03T06:22:53.464Z,7.72
2023-06-03T06:25:56.559Z,8.55
2023-06-03T06:28:59.072Z,7.80
2023-06-03T06:32:01.509Z,8.18
2023-06-03T06:35:04.099Z,8.27
2023-06-03T06:38:06.410Z,8.27
2023-06-03T06:41:14.562Z,8.98
2023-06-03T06:44:16.722Z,9.10
2023-06-03T06:47:23.489Z,9.00
2023-06-03T06:50:37.605Z,8.85
2023-06-03T06:53:49.260Z,9.23
2023-06-03T06:56:51.331Z,9.20
2023-06-03T06:59:54.330Z,9.27
2023-06-03T07:02:56.714Z,9.63
2023-06-03T07:05:59.101Z,9.02
2023-06-03T07:09:01.309Z,9.45
2023-06-03T07:12:03.608Z,8.95
2023-06-03T07:15:06.286Z,10.05
2023-06-03T07:18:13.703Z,9.77
2023-06-03T07:21:17.356Z,9.68
2023-06-03T07:24:19.482Z,9.63
2023-06-03T07:27:28.316Z,10.40
2023-06-03T07:30:30.487Z,10.07
2023-06-03T07:33:38.855Z,9.73
2023-06-03T07:36:41.099Z,9.48
2023-06-03T07:39:43.428Z,8.65
2023-06-03T07:42:46.272Z,8.70
2023-06-03T07:45:49.924Z,9.05
2023-06-03T07:48:52.011Z,9.27
2023-06-03T07:51:54.954Z,8.93
2023-06-03T07:54:57.082Z,8.60
2023-06-03T07:57:59.156Z,8.30
2023-06-03T08:01:01.320Z,8.13
2023-06-03T08:04:21.660Z,8.93
2023-06-03T08:07:25.953Z,7.28
2023-06-03T08:10:28.414Z,7.60
2023-06-03T08:13:30.597Z,7.82
2023-06-03T08:16:34.616Z,7.45
2023-06-03T08:19:36.938Z,6.97
2023-06-03T08:22:46.091Z,7.13
2023-06-03T08:28:50.320Z,6.20
2023-06-03T08:31:52.378Z,6.80
2023-06-03T08:34:54.501Z,6.53
2023-06-03T08:37:57.902Z,6.97
2023-06-03T08:41:00.471Z,6.53
2023-06-03T08:44:15.027Z,6.32
2023-06-03T08:47:49.747Z,6.30
2023-06-03T08:51:03.729Z,6.65
2023-06-03T08:54:14.783Z,6.38
2023-06-03T08:57:20.643Z,7.20
2023-06-03T09:00:25.394Z,6.32
2023-06-03T09:03:30.965Z,7.05
2023-06-03T09:06:33.248Z,6.43
2023-06-03T09:09:36.712Z,6.45
2023-06-03T09:12:39.478Z,6.35
2023-06-03T09:15:44.141Z,6.13
2023-06-03T09:18:46.312Z,6.10
2023-06-03T09:21:51.304Z,6.00
2023-06-03T09:24:53.946Z,6.10
2023-06-03T09:27:56.121Z,6.15
2023-06-03T09:30:58.219Z,5.80
2023-06-03T09:34:00.354Z,5.90
2023-06-03T09:37:09.434Z,6.00
2023-06-03T09:43:28.148Z,5.65
2023-06-03T09:46:31.893Z,5.57
2023-06-03T09:52:40.788Z,5.28
2023-06-03T09:55:42.933Z,5.97
2023-06-03T09:58:45.086Z,6.15
2023-06-03T10:01:48.745Z,5.57
2023-06-03T10:04:50.967Z,5.57
2023-06-03T10:07:53.156Z,5.80
2023-06-03T10:10:57.469Z,5.75
2023-06-03T10:14:04.926Z,5.70
2023-06-03T10:17:11.622Z,5.40
2023-06-03T10:20:33.673Z,6.18
2023-06-03T10:23:39.288Z,6.03
2023-06-03T10:26:41.726Z,5.43
2023-06-03T10:29:44.250Z,5.68
2023-06-03T10:32:46.716Z,5.13
2023-06-03T10:35:50.148Z,5.68
2023-06-03T10:38:53.138Z,5.15
2023-06-03T10:41:59.313Z,5.10
2023-06-03T10:45:01.736Z,5.22
2023-06-03T10:48:13.710Z,5.80
2023-06-03T10:51:31.174Z,5.55
2023-06-03T10:54:42.287Z,5.55
2023-06-03T10:57:52.676Z,5.75
2023-06-03T11:01:05.698Z,5.60
2023-06-03T11:04:08.045Z,5.05
2023-06-03T11:07:32.341Z,4.78
2023-06-03T11:10:42.045Z,5.20
2023-06-03T11:13:46.356Z,5.00
2023-06-03T11:17:00.718Z,5.13
2023-06-03T11:20:02.914Z,4.97
2023-06-03T11:23:05.025Z,5.07
2023-06-03T11:26:35.314Z,5.05
2023-06-03T11:29:58.267Z,5.20
2023-06-03T11:33:11.213Z,4.88
2023-06-03T11:36:48.942Z,5.07
2023-06-03T11:39:59.998Z,5.03
2023-06-03T11:43:02.534Z,4.85
2023-06-03T11:46:06.687Z,5.07
2023-06-03T11:49:10.109Z,5.10
2023-06-03T11:52:12.819Z,4.47
2023-06-03T11:55:29.190Z,4.47
2023-06-03T11:58:31.949Z,4.78
2023-06-03T12:01:35.301Z,4.30
2023-06-03T12:04:37.673Z,4.15
2023-06-03T12:07:40.334Z,4.00
2023-06-03T12:10:42.641Z,4.40
2023-06-03T12:13:45.711Z,4.22
2023-06-03T12:16:47.856Z,4.30
2023-06-03T12:19:52.530Z,4.40
2023-06-03T12:23:01.734Z,4.35
2023-06-03T12:26:03.867Z,4.22
2023-06-03T12:29:10.470Z,4.30
2023-06-03T12:32:13.120Z,4.70
2023-06-03T12:35:15.459Z,4.38
2023-06-03T12:38:17.486Z,4.85
2023-06-03T12:41:19.814Z,5.45
2023-06-03T12:44:22.234Z,4.95
2023-06-03T12:47:26.019Z,4.40
2023-06-03T12:50:35.981Z,4.18
2023-06-03T12:53:38.798Z,4.07
2023-06-03T12:56:44.585Z,4.55
2023-06-03T13:00:10.442Z,4.72
2023-06-03T13:03:12.933Z,5.03
2023-06-03T13:06:15.941Z,4.13
2023-06-03T13:09:18.030Z,3.90
2023-06-03T13:12:20.257Z,4.10
2023-06-03T13:15:22.436Z,3.70
2023-06-03T13:18:24.801Z,3.70
2023-06-03T13:21:27.106Z,3.53
2023-06-03T13:24:29.318Z,3.92
2023-06-03T13:27:31.507Z,3.90
2023-06-03T13:30:33.592Z,3.80
2023-06-03T13:33:35.751Z,3.53
2023-06-03T13:36:38.192Z,3.60
2023-06-03T13:39:40.613Z,3.55
2023-06-03T13:42:42.817Z,3.47
2023-06-03T13:45:45.110Z,3.60
2023-06-03T13:48:47.220Z,5.38
2023-06-03T13:51:50.147Z,3.47
2023-06-03T13:54:52.236Z,3.40
2023-06-03T13:57:54.354Z,3.38
2023-06-03T14:00:56.589Z,3.50
2023-06-03T14:03:58.996Z,3.50
2023-06-03T14:07:01.137Z,3.90
2023-06-03T14:10:05.910Z,3.65
2023-06-03T14:13:07.966Z,3.55
2023-06-03T14:16:10.243Z,3.67
2023-06-03T14:19:12.823Z,3.63
2023-06-03T14:22:15.004Z,3.42
2023-06-03T14:25:17.332Z,4.00
2023-06-03T14:28:19.447Z,3.78
2023-06-03T14:34:27.227Z,3.20
2023-06-03T14:37:29.282Z,3.80
2023-06-03T14:40:31.394Z,3.85
2023-06-03T14:43:33.470Z,3.63
2023-06-03T14:46:35.678Z,3.60
2023-06-03T14:49:37.944Z,3.65
2023-06-03T14:52:40.172Z,4.00
2023-06-03T14:55:44.316Z,3.88
2023-06-03T14:58:46.909Z,4.00
2023-06-03T15:01:49.177Z,3.92
2023-06-03T15:04:51.479Z,3.50
2023-06-03T15:07:53.551Z,3.30
2023-06-03T15:10:55.787Z,3.50
2023-06-03T15:13:57.959Z,3.60
2023-06-03T15:17:00.252Z,3.55
2023-06-03T15:20:02.501Z,3.30
2023-06-03T15:23:04.878Z,3.40
2023-06-03T15:26:07.254Z,3.53
2023-06-03T15:29:09.960Z,3.40
2023-06-03T15:32:12.059Z,3.38
2023-06-03T15:35:14.163Z,3.72
2023-06-03T15:38:16.220Z,3.50
2023-06-03T15:41:18.336Z,3.78
2023-06-03T15:44:20.547Z,3.38
2023-06-03T15:47:22.716Z,3.80
2023-06-03T15:50:24.820Z,3.78
2023-06-03T15:53:27.570Z,3.83
2023-06-03T15:56:29.689Z,4.05
2023-06-03T15:59:31.811Z,3.78
2023-06-03T16:02:34.200Z,4.07
2023-06-03T16:05:36.640Z,4.07
2023-06-03T16:08:38.741Z,3.80
2023-06-03T16:11:41.108Z,4.15
2023-06-03T16:14:43.241Z,3.85
2023-06-03T16:17:45.702Z,4.22
2023-06-03T16:20:47.945Z,3.75
2023-06-03T16:23:50.314Z,4.20
2023-06-03T16:26:52.734Z,4.18
2023-06-03T16:29:54.897Z,4.15
2023-06-03T16:32:57.035Z,4.00
2023-06-03T16:35:59.866Z,4.07
2023-06-03T16:39:02.074Z,4.18
2023-06-03T16:42:04.406Z,3.70
2023-06-03T16:45:06.996Z,3.95
2023-06-03T16:48:09.206Z,3.75
2023-06-03T16:51:11.784Z,3.90
2023-06-03T16:54:13.934Z,4.00
2023-06-03T16:57:16.000Z,4.10
2023-06-03T17:00:18.423Z,4.13
2023-06-03T17:03:22.660Z,3.83
2023-06-03T17:06:26.312Z,3.78
2023-06-03T17:09:28.421Z,4.28
2023-06-03T17:12:30.566Z,3.90
2023-06-03T17:15:32.646Z,3.80
2023-06-03T17:18:35.212Z,3.72
2023-06-03T17:21:37.353Z,4.10
2023-06-03T17:24:39.608Z,4.18
2023-06-03T17:27:41.716Z,4.20
2023-06-03T17:30:43.916Z,4.13
2023-06-03T17:33:47.494Z,4.60
2023-06-03T17:36:49.638Z,3.95
2023-06-03T17:39:51.746Z,4.47
2023-06-03T17:42:53.825Z,4.32
2023-06-03T17:45:55.852Z,4.32
2023-06-03T17:48:57.935Z,4.60
2023-06-03T17:52:00.055Z,4.20
2023-06-03T17:55:02.276Z,4.43
2023-06-03T17:58:04.568Z,4.72
2023-06-03T18:01:07.458Z,4.93
2023-06-03T18:04:13.059Z,5.05
2023-06-03T18:07:15.491Z,5.05
2023-06-03T18:10:17.608Z,4.88
2023-06-03T18:13:19.729Z,5.07
2023-06-03T18:16:21.958Z,5.25
2023-06-03T18:19:24.304Z,7.20
2023-06-03T18:22:26.798Z,6.93
2023-06-03T18:25:28.910Z,6.40
2023-06-03T18:28:31.043Z,6.18
2023-06-03T18:31:37.143Z,5.72
2023-06-03T18:34:43.730Z,5.90
2023-06-03T18:37:48.900Z,5.68
2023-06-03T18:40:51.274Z,6.00
2023-06-03T18:43:53.343Z,5.93
2023-06-03T18:46:55.380Z,6.43
2023-06-03T18:49:57.512Z,6.60
2023-06-03T18:52:59.666Z,6.13
2023-06-03T18:56:01.807Z,6.68
2023-06-03T18:59:16.716Z,6.35
2023-06-03T19:02:19.834Z,6.03
2023-06-03T19:05:22.136Z,6.55
2023-06-03T19:08:24.208Z,6.50
2023-06-03T19:11:26.475Z,6.25
2023-06-03T19:14:29.917Z,6.68
2023-06-03T19:17:32.087Z,6.40
2023-06-03T19:20:34.218Z,6.28
2023-06-03T19:23:38.413Z,6.70
2023-06-03T19:26:40.577Z,6.93
2023-06-03T19:29:42.689Z,6.93
2023-06-03T19:32:44.881Z,6.93
2023-06-03T19:35:47.077Z,6.60
2023-06-03T19:38:49.288Z,6.15
2023-06-03T19:41:51.437Z,6.85
2023-06-03T19:44:53.623Z,6.85
2023-06-03T19:47:59.316Z,6.57
2023-06-03T19:51:01.951Z,6.88
2023-06-03T19:54:04.087Z,6.78
2023-06-03T19:57:08.972Z,6.57
2023-06-03T20:00:11.605Z,6.78
2023-06-03T20:03:13.757Z,6.85
2023-06-03T20:06:16.048Z,6.60
2023-06-03T20:09:19.338Z,7.03
2023-06-03T20:12:23.164Z,7.00
2023-06-03T20:15:25.984Z,6.60
2023-06-03T20:18:28.036Z,6.75
2023-06-03T20:21:30.588Z,7.03
2023-06-03T20:24:32.711Z,7.03
2023-06-03T20:27:34.806Z,6.70
2023-06-03T20:30:36.974Z,6.70
2023-06-03T20:33:39.236Z,6.80
2023-06-03T20:36:41.406Z,6.20
2023-06-03T20:39:43.535Z,6.15
2023-06-03T20:42:45.554Z,6.45
2023-06-03T20:45:47.625Z,6.70
2023-06-03T20:48:49.685Z,7.10
2023-06-03T20:51:51.820Z,6.43
2023-06-03T20:54:54.207Z,7.30
2023-06-03T20:57:56.431Z,6.97
2023-06-03T21:00:58.464Z,7.50
2023-06-03T21:04:00.750Z,7.18
2023-06-03T21:07:04.175Z,7.35
2023-06-03T21:10:06.779Z,7.13
2023-06-03T21:13:08.853Z,7.43
2023-06-03T21:16:10.909Z,7.22
2023-06-03T21:19:14.911Z,7.72
2023-06-03T21:22:18.321Z,7.50
2023-06-03T21:25:20.643Z,7.70
2023-06-03T21:28:22.769Z,7.30
2023-06-03T21:31:24.842Z,8.07
2023-06-03T21:34:26.993Z,7.72
2023-06-03T21:37:29.082Z,7.45
2023-06-03T21:40:31.218Z,7.25
2023-06-03T21:43:33.236Z,7.45
2023-06-03T21:46:35.484Z,7.38
2023-06-03T21:49:37.667Z,7.20
2023-06-03T21:52:40.022Z,7.13
2023-06-03T21:55:42.241Z,6.97
2023-06-03T21:58:44.276Z,7.00
2023-06-03T22:01:46.422Z,7.10
2023-06-03T22:04:48.531Z,7.10
2023-06-03T22:07:50.796Z,6.95
2023-06-03T22:10:52.922Z,6.93
2023-06-03T22:13:55.032Z,7.68
2023-06-03T22:16:57.055Z,7.25
2023-06-03T22:19:59.150Z,7.88
2023-06-03T22:23:07.071Z,7.95
2023-06-03T22:26:09.762Z,8.02
2023-06-03T22:29:11.903Z,8.07
2023-06-03T22:32:15.275Z,8.18
2023-06-03T22:35:17.427Z,7.60
2023-06-03T22:38:19.516Z,7.22
2023-06-03T22:41:21.784Z,7.68
2023-06-03T22:44:23.877Z,7.90
2023-06-03T22:47:26.006Z,8.00
2023-06-03T22:50:28.244Z,7.78
2023-06-03T22:53:30.312Z,7.50
2023-06-03T22:56:33.071Z,7.57
2023-06-03T22:59:35.106Z,7.68
2023-06-03T23:02:37.185Z,7.93
2023-06-03T23:05:39.738Z,7.82
2023-06-03T23:08:42.039Z,7.18
2023-06-03T23:11:46.895Z,7.88
2023-06-03T23:14:49.009Z,7.40
2023-06-03T23:17:51.133Z,7.50
2023-06-03T23:20:54.419Z,7.68
2023-06-03T23:23:56.559Z,7.68
2023-06-03T23:26:58.710Z,7.80
2023-06-03T23:30:00.930Z,7.60
2023-06-03T23:33:03.492Z,7.45
2023-06-03T23:36:05.996Z,7.13
2023-06-03T23:39:08.150Z,7.00
2023-06-03T23:42:10.339Z,7.32
2023-06-03T23:45:12.525Z,7.15
2023-06-03T23:48:14.770Z,7.70
2023-06-03T23:51:17.308Z,7.85
2023-06-03T23:54:19.362Z,8.50
2023-06-03T23:57:21.448Z,8.00
